sensor_id;sensor_type;location;lat;lon;timestamp;P1;durP1;ratioP1;P2;durP2;ratioP2
37701;SDS011;23548;51.196;6.838;2023-07-31T00:01:16;11.57;;;5.05;;
37701;SDS011;23548;51.196;6.838;2023-07-31T00:03:42;14.30;;;5.60;;
37701;SDS011;23548;51.196;6.838;2023-07-31T00:06:07;11.23;;;5.00;;
37701;SDS011;23548;51.196;6.838;2023-07-31T00:08:33;13.60;;;4.63;;
37701;SDS011;23548;51.196;6.838;2023-07-31T00:10:59;11.73;;;5.20;;
37701;SDS011;23548;51.196;6.838;2023-07-31T00:13:25;11.32;;;5.05;;
37701;SDS011;23548;51.196;6.838;2023-07-31T00:15:50;12.95;;;5.22;;
37701;SDS011;23548;51.196;6.838;2023-07-31T00:18:16;12.48;;;5.68;;
37701;SDS011;23548;51.196;6.838;2023-07-31T00:20:42;11.73;;;5.40;;
37701;SDS011;23548;51.196;6.838;2023-07-31T00:23:07;10.25;;;5.03;;
37701;SDS011;23548;51.196;6.838;2023-07-31T00:25:33;11.48;;;4.97;;
37701;SDS011;23548;51.196;6.838;2023-07-31T00:27:59;10.95;;;5.18;;
37701;SDS011;23548;51.196;6.838;2023-07-31T00:30:24;16.00;;;5.38;;
37701;SDS011;23548;51.196;6.838;2023-07-31T00:32:51;10.40;;;5.03;;
37701;SDS011;23548;51.196;6.838;2023-07-31T00:35:17;11.57;;;4.15;;
37701;SDS011;23548;51.196;6.838;2023-07-31T00:37:43;13.93;;;5.15;;
37701;SDS011;23548;51.196;6.838;2023-07-31T00:40:09;15.55;;;5.32;;
37701;SDS011;23548;51.196;6.838;2023-07-31T00:42:35;14.10;;;5.07;;
37701;SDS011;23548;51.196;6.838;2023-07-31T00:45:00;12.73;;;5.57;;
37701;SDS011;23548;51.196;6.838;2023-07-31T00:47:26;13.32;;;5.10;;
37701;SDS011;23548;51.196;6.838;2023-07-31T00:49:52;10.60;;;4.60;;
37701;SDS011;23548;51.196;6.838;2023-07-31T00:52:18;9.57;;;5.20;;
37701;SDS011;23548;51.196;6.838;2023-07-31T00:54:44;9.50;;;4.20;;
37701;SDS011;23548;51.196;6.838;2023-07-31T00:57:10;9.38;;;4.55;;
37701;SDS011;23548;51.196;6.838;2023-07-31T00:59:36;10.70;;;4.55;;
37701;SDS011;23548;51.196;6.838;2023-07-31T01:02:01;15.23;;;5.10;;
37701;SDS011;23548;51.196;6.838;2023-07-31T01:04:28;14.88;;;5.18;;
37701;SDS011;23548;51.196;6.838;2023-07-31T01:12:22;12.65;;;4.90;;
37701;SDS011;23548;51.196;6.838;2023-07-31T01:15:11;11.20;;;4.60;;
37701;SDS011;23548;51.196;6.838;2023-07-31T01:17:37;12.73;;;4.43;;
37701;SDS011;23548;51.196;6.838;2023-07-31T01:20:05;12.90;;;4.68;;
37701;SDS011;23548;51.196;6.838;2023-07-31T01:30:33;16.42;;;4.55;;
37701;SDS011;23548;51.196;6.838;2023-07-31T01:33:02;12.10;;;4.65;;
37701;SDS011;23548;51.196;6.838;2023-07-31T01:35:33;14.30;;;4.95;;
37701;SDS011;23548;51.196;6.838;2023-07-31T01:40:50;13.50;;;4.90;;
37701;SDS011;23548;51.196;6.838;2023-07-31T01:43:18;13.60;;;4.80;;
37701;SDS011;23548;51.196;6.838;2023-07-31T01:45:44;14.50;;;4.70;;
37701;SDS011;23548;51.196;6.838;2023-07-31T01:48:09;14.95;;;5.13;;
37701;SDS011;23548;51.196;6.838;2023-07-31T01:50:35;9.50;;;4.28;;
37701;SDS011;23548;51.196;6.838;2023-07-31T01:53:01;9.63;;;4.35;;
37701;SDS011;23548;51.196;6.838;2023-07-31T01:55:26;12.48;;;4.75;;
37701;SDS011;23548;51.196;6.838;2023-07-31T01:57:52;17.45;;;5.20;;
37701;SDS011;23548;51.196;6.838;2023-07-31T02:00:18;11.05;;;4.60;;
37701;SDS011;23548;51.196;6.838;2023-07-31T02:02:44;15.52;;;5.28;;
37701;SDS011;23548;51.196;6.838;2023-07-31T02:05:10;10.98;;;5.25;;
37701;SDS011;23548;51.196;6.838;2023-07-31T02:07:35;13.82;;;5.35;;
37701;SDS011;23548;51.196;6.838;2023-07-31T02:10:01;9.38;;;4.63;;
37701;SDS011;23548;51.196;6.838;2023-07-31T02:12:27;20.63;;;5.18;;
37701;SDS011;23548;51.196;6.838;2023-07-31T02:14:56;15.38;;;5.60;;
37701;SDS011;23548;51.196;6.838;2023-07-31T02:17:21;13.57;;;4.55;;
37701;SDS011;23548;51.196;6.838;2023-07-31T02:19:47;11.88;;;4.70;;
37701;SDS011;23548;51.196;6.838;2023-07-31T02:22:13;14.25;;;5.13;;
37701;SDS011;23548;51.196;6.838;2023-07-31T02:24:39;13.52;;;5.10;;
37701;SDS011;23548;51.196;6.838;2023-07-31T02:27:05;16.35;;;4.68;;
37701;SDS011;23548;51.196;6.838;2023-07-31T02:29:31;14.15;;;4.65;;
37701;SDS011;23548;51.196;6.838;2023-07-31T02:31:57;16.95;;;5.15;;
37701;SDS011;23548;51.196;6.838;2023-07-31T02:34:22;15.80;;;5.65;;
37701;SDS011;23548;51.196;6.838;2023-07-31T02:36:48;15.13;;;5.80;;
37701;SDS011;23548;51.196;6.838;2023-07-31T02:39:14;11.63;;;5.05;;
37701;SDS011;23548;51.196;6.838;2023-07-31T02:41:39;11.27;;;5.15;;
37701;SDS011;23548;51.196;6.838;2023-07-31T02:44:05;11.68;;;4.82;;
37701;SDS011;23548;51.196;6.838;2023-07-31T02:46:31;15.27;;;5.70;;
37701;SDS011;23548;51.196;6.838;2023-07-31T02:48:57;13.35;;;5.47;;
37701;SDS011;23548;51.196;6.838;2023-07-31T02:51:22;13.27;;;4.90;;
37701;SDS011;23548;51.196;6.838;2023-07-31T02:53:48;15.50;;;5.88;;
37701;SDS011;23548;51.196;6.838;2023-07-31T02:56:14;14.90;;;5.10;;
37701;SDS011;23548;51.196;6.838;2023-07-31T02:58:40;13.52;;;5.10;;
37701;SDS011;23548;51.196;6.838;2023-07-31T03:01:06;14.95;;;5.13;;
37701;SDS011;23548;51.196;6.838;2023-07-31T03:03:31;13.43;;;5.10;;
37701;SDS011;23548;51.196;6.838;2023-07-31T03:05:57;15.85;;;5.50;;
37701;SDS011;23548;51.196;6.838;2023-07-31T03:08:23;12.35;;;5.45;;
37701;SDS011;23548;51.196;6.838;2023-07-31T03:10:49;15.43;;;5.28;;
37701;SDS011;23548;51.196;6.838;2023-07-31T03:13:14;12.30;;;5.20;;
37701;SDS011;23548;51.196;6.838;2023-07-31T03:15:43;15.40;;;4.88;;
37701;SDS011;23548;51.196;6.838;2023-07-31T03:18:09;12.88;;;5.30;;
37701;SDS011;23548;51.196;6.838;2023-07-31T03:20:35;15.68;;;5.63;;
37701;SDS011;23548;51.196;6.838;2023-07-31T03:23:00;16.60;;;5.30;;
37701;SDS011;23548;51.196;6.838;2023-07-31T03:25:26;11.60;;;4.95;;
37701;SDS011;23548;51.196;6.838;2023-07-31T03:27:52;12.77;;;5.22;;
37701;SDS011;23548;51.196;6.838;2023-07-31T03:30:17;12.60;;;4.88;;
37701;SDS011;23548;51.196;6.838;2023-07-31T03:32:43;12.98;;;4.65;;
37701;SDS011;23548;51.196;6.838;2023-07-31T03:35:09;14.50;;;5.15;;
37701;SDS011;23548;51.196;6.838;2023-07-31T03:37:35;16.33;;;5.50;;
37701;SDS011;23548;51.196;6.838;2023-07-31T03:40:01;9.98;;;5.07;;
37701;SDS011;23548;51.196;6.838;2023-07-31T03:42:27;16.45;;;5.40;;
37701;SDS011;23548;51.196;6.838;2023-07-31T03:44:53;11.43;;;5.30;;
37701;SDS011;23548;51.196;6.838;2023-07-31T03:47:18;14.73;;;5.10;;
37701;SDS011;23548;51.196;6.838;2023-07-31T03:49:44;13.48;;;5.43;;
37701;SDS011;23548;51.196;6.838;2023-07-31T03:52:10;10.15;;;4.97;;
37701;SDS011;23548;51.196;6.838;2023-07-31T03:54:36;10.63;;;4.72;;
37701;SDS011;23548;51.196;6.838;2023-07-31T03:57:01;13.48;;;4.97;;
37701;SDS011;23548;51.196;6.838;2023-07-31T03:59:27;12.30;;;5.72;;
37701;SDS011;23548;51.196;6.838;2023-07-31T04:01:53;13.18;;;4.80;;
37701;SDS011;23548;51.196;6.838;2023-07-31T04:04:18;13.60;;;5.47;;
37701;SDS011;23548;51.196;6.838;2023-07-31T04:06:44;13.45;;;5.40;;
37701;SDS011;23548;51.196;6.838;2023-07-31T04:09:10;13.73;;;5.78;;
37701;SDS011;23548;51.196;6.838;2023-07-31T04:11:35;14.27;;;5.72;;
37701;SDS011;23548;51.196;6.838;2023-07-31T04:14:01;17.05;;;7.28;;
37701;SDS011;23548;51.196;6.838;2023-07-31T04:16:27;16.02;;;6.93;;
37701;SDS011;23548;51.196;6.838;2023-07-31T04:18:53;12.75;;;5.72;;
37701;SDS011;23548;51.196;6.838;2023-07-31T04:21:18;14.85;;;6.55;;
37701;SDS011;23548;51.196;6.838;2023-07-31T04:23:44;14.38;;;6.25;;
37701;SDS011;23548;51.196;6.838;2023-07-31T04:26:10;12.52;;;6.10;;
37701;SDS011;23548;51.196;6.838;2023-07-31T04:28:36;11.68;;;5.53;;
37701;SDS011;23548;51.196;6.838;2023-07-31T04:31:01;15.55;;;6.97;;
37701;SDS011;23548;51.196;6.838;2023-07-31T04:33:27;14.40;;;6.53;;
37701;SDS011;23548;51.196;6.838;2023-07-31T04:35:53;14.15;;;6.68;;
37701;SDS011;23548;51.196;6.838;2023-07-31T04:38:19;16.35;;;7.82;;
37701;SDS011;23548;51.196;6.838;2023-07-31T04:40:46;17.67;;;6.68;;
37701;SDS011;23548;51.196;6.838;2023-07-31T04:43:12;17.35;;;7.57;;
37701;SDS011;23548;51.196;6.838;2023-07-31T04:45:38;14.88;;;6.80;;
37701;SDS011;23548;51.196;6.838;2023-07-31T04:48:03;14.45;;;6.25;;
37701;SDS011;23548;51.196;6.838;2023-07-31T04:50:29;16.58;;;6.70;;
37701;SDS011;23548;51.196;6.838;2023-07-31T04:52:55;13.85;;;5.70;;
37701;SDS011;23548;51.196;6.838;2023-07-31T04:55:21;17.75;;;6.30;;
37701;SDS011;23548;51.196;6.838;2023-07-31T04:57:47;13.95;;;6.30;;
37701;SDS011;23548;51.196;6.838;2023-07-31T05:00:13;11.65;;;5.90;;
37701;SDS011;23548;51.196;6.838;2023-07-31T05:02:39;16.67;;;5.80;;
37701;SDS011;23548;51.196;6.838;2023-07-31T05:05:04;12.13;;;5.82;;
37701;SDS011;23548;51.196;6.838;2023-07-31T05:07:30;17.33;;;6.30;;
37701;SDS011;23548;51.196;6.838;2023-07-31T05:09:56;10.68;;;6.22;;
37701;SDS011;23548;51.196;6.838;2023-07-31T05:12:21;14.00;;;6.22;;
37701;SDS011;23548;51.196;6.838;2023-07-31T05:14:47;11.95;;;5.43;;
37701;SDS011;23548;51.196;6.838;2023-07-31T05:17:13;17.35;;;6.10;;
37701;SDS011;23548;51.196;6.838;2023-07-31T05:19:39;13.60;;;6.05;;
37701;SDS011;23548;51.196;6.838;2023-07-31T05:22:05;11.35;;;5.90;;
37701;SDS011;23548;51.196;6.838;2023-07-31T05:24:31;13.88;;;5.60;;
37701;SDS011;23548;51.196;6.838;2023-07-31T05:26:57;15.15;;;6.70;;
37701;SDS011;23548;51.196;6.838;2023-07-31T05:29:22;13.43;;;6.50;;
37701;SDS011;23548;51.196;6.838;2023-07-31T05:31:48;9.57;;;6.20;;
37701;SDS011;23548;51.196;6.838;2023-07-31T05:34:14;17.15;;;6.13;;
37701;SDS011;23548;51.196;6.838;2023-07-31T05:36:40;13.15;;;5.97;;
37701;SDS011;23548;51.196;6.838;2023-07-31T05:39:06;14.07;;;6.47;;
37701;SDS011;23548;51.196;6.838;2023-07-31T05:41:33;10.88;;;5.90;;
37701;SDS011;23548;51.196;6.838;2023-07-31T05:44:00;11.45;;;5.78;;
37701;SDS011;23548;51.196;6.838;2023-07-31T05:46:26;12.95;;;6.13;;
37701;SDS011;23548;51.196;6.838;2023-07-31T05:48:51;11.10;;;5.75;;
37701;SDS011;23548;51.196;6.838;2023-07-31T05:51:17;17.15;;;5.78;;
37701;SDS011;23548;51.196;6.838;2023-07-31T05:53:43;10.30;;;5.53;;
37701;SDS011;23548;51.196;6.838;2023-07-31T05:56:09;13.43;;;5.80;;
37701;SDS011;23548;51.196;6.838;2023-07-31T05:58:34;10.90;;;5.55;;
37701;SDS011;23548;51.196;6.838;2023-07-31T06:01:00;8.73;;;5.70;;
37701;SDS011;23548;51.196;6.838;2023-07-31T06:03:26;10.45;;;5.72;;
37701;SDS011;23548;51.196;6.838;2023-07-31T06:05:52;12.27;;;5.65;;
37701;SDS011;23548;51.196;6.838;2023-07-31T06:08:17;12.55;;;5.43;;
37701;SDS011;23548;51.196;6.838;2023-07-31T06:10:43;10.65;;;5.65;;
37701;SDS011;23548;51.196;6.838;2023-07-31T06:13:09;11.80;;;5.45;;
37701;SDS011;23548;51.196;6.838;2023-07-31T06:15:35;10.63;;;5.13;;
37701;SDS011;23548;51.196;6.838;2023-07-31T06:18:00;11.63;;;5.00;;
37701;SDS011;23548;51.196;6.838;2023-07-31T06:20:27;9.55;;;5.20;;
37701;SDS011;23548;51.196;6.838;2023-07-31T06:22:53;10.45;;;5.13;;
37701;SDS011;23548;51.196;6.838;2023-07-31T06:25:19;8.60;;;5.20;;
37701;SDS011;23548;51.196;6.838;2023-07-31T06:27:45;16.33;;;5.57;;
37701;SDS011;23548;51.196;6.838;2023-07-31T06:30:11;13.07;;;5.80;;
37701;SDS011;23548;51.196;6.838;2023-07-31T06:32:37;12.68;;;5.90;;
37701;SDS011;23548;51.196;6.838;2023-07-31T06:35:02;12.95;;;5.40;;
37701;SDS011;23548;51.196;6.838;2023-07-31T06:37:28;14.82;;;5.88;;
37701;SDS011;23548;51.196;6.838;2023-07-31T06:39:54;12.80;;;5.82;;
37701;SDS011;23548;51.196;6.838;2023-07-31T06:42:20;8.55;;;5.03;;
37701;SDS011;23548;51.196;6.838;2023-07-31T06:44:46;12.20;;;5.40;;
37701;SDS011;23548;51.196;6.838;2023-07-31T06:47:11;13.80;;;6.07;;
37701;SDS011;23548;51.196;6.838;2023-07-31T06:49:37;13.35;;;5.38;;
37701;SDS011;23548;51.196;6.838;2023-07-31T06:52:03;12.20;;;5.38;;
37701;SDS011;23548;51.196;6.838;2023-07-31T06:54:29;13.75;;;5.68;;
37701;SDS011;23548;51.196;6.838;2023-07-31T06:56:55;12.38;;;5.80;;
37701;SDS011;23548;51.196;6.838;2023-07-31T06:59:20;11.18;;;5.35;;
37701;SDS011;23548;51.196;6.838;2023-07-31T07:01:46;9.63;;;5.35;;
37701;SDS011;23548;51.196;6.838;2023-07-31T07:04:13;11.43;;;5.45;;
37701;SDS011;23548;51.196;6.838;2023-07-31T07:06:39;10.52;;;5.57;;
37701;SDS011;23548;51.196;6.838;2023-07-31T07:09:05;11.13;;;4.95;;
37701;SDS011;23548;51.196;6.838;2023-07-31T07:11:31;12.60;;;4.85;;
37701;SDS011;23548;51.196;6.838;2023-07-31T07:13:56;11.18;;;5.10;;
37701;SDS011;23548;51.196;6.838;2023-07-31T07:16:22;14.90;;;5.55;;
37701;SDS011;23548;51.196;6.838;2023-07-31T07:18:48;11.70;;;5.00;;
37701;SDS011;23548;51.196;6.838;2023-07-31T07:21:14;11.88;;;5.85;;
37701;SDS011;23548;51.196;6.838;2023-07-31T07:23:42;12.38;;;5.25;;
37701;SDS011;23548;51.196;6.838;2023-07-31T07:26:07;9.65;;;5.72;;
37701;SDS011;23548;51.196;6.838;2023-07-31T07:28:33;12.10;;;5.40;;
37701;SDS011;23548;51.196;6.838;2023-07-31T07:30:59;11.68;;;5.40;;
37701;SDS011;23548;51.196;6.838;2023-07-31T07:33:24;13.02;;;5.72;;
37701;SDS011;23548;51.196;6.838;2023-07-31T07:35:51;13.93;;;6.22;;
37701;SDS011;23548;51.196;6.838;2023-07-31T07:38:16;10.25;;;5.75;;
37701;SDS011;23548;51.196;6.838;2023-07-31T07:40:44;11.90;;;5.50;;
37701;SDS011;23548;51.196;6.838;2023-07-31T07:43:11;12.15;;;6.05;;
37701;SDS011;23548;51.196;6.838;2023-07-31T07:45:37;14.35;;;6.13;;
37701;SDS011;23548;51.196;6.838;2023-07-31T07:48:03;13.52;;;5.68;;
37701;SDS011;23548;51.196;6.838;2023-07-31T07:50:29;12.57;;;6.25;;
37701;SDS011;23548;51.196;6.838;2023-07-31T07:52:55;13.75;;;5.90;;
37701;SDS011;23548;51.196;6.838;2023-07-31T07:55:21;16.02;;;5.72;;
37701;SDS011;23548;51.196;6.838;2023-07-31T07:57:46;9.45;;;5.22;;
37701;SDS011;23548;51.196;6.838;2023-07-31T08:00:15;9.75;;;5.20;;
37701;SDS011;23548;51.196;6.838;2023-07-31T08:02:42;9.57;;;5.38;;
37701;SDS011;23548;51.196;6.838;2023-07-31T08:05:08;13.05;;;5.82;;
37701;SDS011;23548;51.196;6.838;2023-07-31T08:07:33;11.18;;;5.38;;
37701;SDS011;23548;51.196;6.838;2023-07-31T08:09:59;9.32;;;5.60;;
37701;SDS011;23548;51.196;6.838;2023-07-31T08:12:25;10.73;;;5.57;;
37701;SDS011;23548;51.196;6.838;2023-07-31T08:14:51;15.32;;;5.95;;
37701;SDS011;23548;51.196;6.838;2023-07-31T08:17:17;9.35;;;4.50;;
37701;SDS011;23548;51.196;6.838;2023-07-31T08:19:43;12.07;;;4.25;;
37701;SDS011;23548;51.196;6.838;2023-07-31T08:22:09;15.45;;;5.07;;
37701;SDS011;23548;51.196;6.838;2023-07-31T08:24:35;9.18;;;4.93;;
37701;SDS011;23548;51.196;6.838;2023-07-31T08:27:00;10.80;;;5.43;;
37701;SDS011;23548;51.196;6.838;2023-07-31T08:29:26;8.88;;;4.95;;
37701;SDS011;23548;51.196;6.838;2023-07-31T08:31:52;8.82;;;5.18;;
37701;SDS011;23548;51.196;6.838;2023-07-31T08:34:17;9.80;;;5.00;;
37701;SDS011;23548;51.196;6.838;2023-07-31T08:36:43;12.32;;;4.20;;
37701;SDS011;23548;51.196;6.838;2023-07-31T08:39:09;7.90;;;4.38;;
37701;SDS011;23548;51.196;6.838;2023-07-31T08:41:38;11.77;;;4.70;;
37701;SDS011;23548;51.196;6.838;2023-07-31T08:44:07;8.13;;;4.53;;
37701;SDS011;23548;51.196;6.838;2023-07-31T08:46:33;9.10;;;4.40;;
37701;SDS011;23548;51.196;6.838;2023-07-31T08:49:00;8.88;;;4.13;;
37701;SDS011;23548;51.196;6.838;2023-07-31T08:51:31;7.25;;;4.18;;
37701;SDS011;23548;51.196;6.838;2023-07-31T08:53:59;9.90;;;4.45;;
37701;SDS011;23548;51.196;6.838;2023-07-31T08:56:25;9.95;;;4.60;;
37701;SDS011;23548;51.196;6.838;2023-07-31T08:58:52;7.72;;;4.43;;
37701;SDS011;23548;51.196;6.838;2023-07-31T09:01:19;10.15;;;4.72;;
37701;SDS011;23548;51.196;6.838;2023-07-31T09:03:45;10.95;;;4.63;;
37701;SDS011;23548;51.196;6.838;2023-07-31T09:06:12;12.02;;;4.68;;
37701;SDS011;23548;51.196;6.838;2023-07-31T09:08:41;10.80;;;4.50;;
37701;SDS011;23548;51.196;6.838;2023-07-31T09:11:08;9.48;;;4.32;;
37701;SDS011;23548;51.196;6.838;2023-07-31T09:13:33;7.22;;;3.90;;
37701;SDS011;23548;51.196;6.838;2023-07-31T09:15:59;10.90;;;4.25;;
37701;SDS011;23548;51.196;6.838;2023-07-31T09:18:25;7.93;;;4.70;;
37701;SDS011;23548;51.196;6.838;2023-07-31T09:21:01;9.85;;;4.45;;
37701;SDS011;23548;51.196;6.838;2023-07-31T09:23:39;9.60;;;5.20;;
37701;SDS011;23548;51.196;6.838;2023-07-31T09:26:10;6.63;;;4.35;;
37701;SDS011;23548;51.196;6.838;2023-07-31T09:28:36;7.10;;;4.47;;
37701;SDS011;23548;51.196;6.838;2023-07-31T09:31:02;8.73;;;4.63;;
37701;SDS011;23548;51.196;6.838;2023-07-31T09:33:28;11.77;;;5.55;;
37701;SDS011;23548;51.196;6.838;2023-07-31T09:35:53;10.32;;;4.90;;
37701;SDS011;23548;51.196;6.838;2023-07-31T09:38:19;8.68;;;4.78;;
37701;SDS011;23548;51.196;6.838;2023-07-31T09:40:46;11.85;;;4.25;;
37701;SDS011;23548;51.196;6.838;2023-07-31T09:43:13;9.30;;;5.10;;
37701;SDS011;23548;51.196;6.838;2023-07-31T09:45:43;8.07;;;4.65;;
37701;SDS011;23548;51.196;6.838;2023-07-31T09:48:10;8.75;;;5.38;;
37701;SDS011;23548;51.196;6.838;2023-07-31T09:50:46;9.55;;;5.35;;
37701;SDS011;23548;51.196;6.838;2023-07-31T09:53:14;19.63;;;6.43;;
37701;SDS011;23548;51.196;6.838;2023-07-31T09:55:41;10.02;;;5.15;;
37701;SDS011;23548;51.196;6.838;2023-07-31T09:58:08;12.52;;;6.10;;
37701;SDS011;23548;51.196;6.838;2023-07-31T10:00:36;11.20;;;6.32;;
37701;SDS011;23548;51.196;6.838;2023-07-31T10:03:04;9.93;;;5.05;;
37701;SDS011;23548;51.196;6.838;2023-07-31T10:05:34;9.98;;;5.38;;
37701;SDS011;23548;51.196;6.838;2023-07-31T10:08:06;7.78;;;4.55;;
37701;SDS011;23548;51.196;6.838;2023-07-31T10:10:34;11.00;;;4.50;;
37701;SDS011;23548;51.196;6.838;2023-07-31T10:13:02;7.68;;;4.60;;
37701;SDS011;23548;51.196;6.838;2023-07-31T10:15:30;8.45;;;5.20;;
37701;SDS011;23548;51.196;6.838;2023-07-31T10:17:58;8.65;;;4.75;;
37701;SDS011;23548;51.196;6.838;2023-07-31T10:20:24;13.40;;;5.45;;
37701;SDS011;23548;51.196;6.838;2023-07-31T10:22:51;11.02;;;4.82;;
37701;SDS011;23548;51.196;6.838;2023-07-31T10:25:19;10.63;;;4.55;;
37701;SDS011;23548;51.196;6.838;2023-07-31T10:27:47;8.63;;;4.45;;
37701;SDS011;23548;51.196;6.838;2023-07-31T10:30:17;10.38;;;4.75;;
37701;SDS011;23548;51.196;6.838;2023-07-31T10:32:45;10.15;;;4.57;;
37701;SDS011;23548;51.196;6.838;2023-07-31T10:35:15;11.32;;;5.03;;
37701;SDS011;23548;51.196;6.838;2023-07-31T10:37:42;12.27;;;5.32;;
37701;SDS011;23548;51.196;6.838;2023-07-31T10:40:19;10.93;;;4.97;;
37701;SDS011;23548;51.196;6.838;2023-07-31T10:42:50;9.18;;;4.28;;
37701;SDS011;23548;51.196;6.838;2023-07-31T10:48:02;8.45;;;3.83;;
37701;SDS011;23548;51.196;6.838;2023-07-31T10:50:30;7.35;;;4.38;;
37701;SDS011;23548;51.196;6.838;2023-07-31T10:53:00;10.15;;;4.85;;
37701;SDS011;23548;51.196;6.838;2023-07-31T10:57:52;8.40;;;4.40;;
37701;SDS011;23548;51.196;6.838;2023-07-31T11:00:25;7.55;;;4.20;;
37701;SDS011;23548;51.196;6.838;2023-07-31T11:03:00;7.35;;;4.30;;
37701;SDS011;23548;51.196;6.838;2023-07-31T11:05:44;10.60;;;4.20;;
37701;SDS011;23548;51.196;6.838;2023-07-31T11:08:43;9.48;;;3.40;;
37701;SDS011;23548;51.196;6.838;2023-07-31T11:11:14;6.80;;;2.20;;
37701;SDS011;23548;51.196;6.838;2023-07-31T11:13:45;5.18;;;2.60;;
37701;SDS011;23548;51.196;6.838;2023-07-31T11:16:19;5.20;;;2.55;;
37701;SDS011;23548;51.196;6.838;2023-07-31T11:18:46;3.88;;;2.25;;
37701;SDS011;23548;51.196;6.838;2023-07-31T11:21:14;4.70;;;2.70;;
37701;SDS011;23548;51.196;6.838;2023-07-31T11:23:45;4.35;;;2.25;;
37701;SDS011;23548;51.196;6.838;2023-07-31T11:26:11;2.88;;;2.08;;
37701;SDS011;23548;51.196;6.838;2023-07-31T11:28:37;3.40;;;2.30;;
37701;SDS011;23548;51.196;6.838;2023-07-31T11:31:03;7.80;;;2.13;;
37701;SDS011;23548;51.196;6.838;2023-07-31T11:33:30;2.60;;;2.00;;
37701;SDS011;23548;51.196;6.838;2023-07-31T11:35:56;2.17;;;1.48;;
37701;SDS011;23548;51.196;6.838;2023-07-31T11:38:26;3.97;;;1.60;;
37701;SDS011;23548;51.196;6.838;2023-07-31T11:40:54;6.90;;;2.08;;
37701;SDS011;23548;51.196;6.838;2023-07-31T11:43:22;3.10;;;1.50;;
37701;SDS011;23548;51.196;6.838;2023-07-31T11:45:50;3.30;;;1.88;;
37701;SDS011;23548;51.196;6.838;2023-07-31T11:48:21;3.53;;;1.50;;
37701;SDS011;23548;51.196;6.838;2023-07-31T11:50:50;3.10;;;1.63;;
37701;SDS011;23548;51.196;6.838;2023-07-31T11:53:18;3.08;;;1.85;;
37701;SDS011;23548;51.196;6.838;2023-07-31T11:55:50;5.65;;;1.80;;
37701;SDS011;23548;51.196;6.838;2023-07-31T11:58:16;5.70;;;1.98;;
37701;SDS011;23548;51.196;6.838;2023-07-31T12:00:43;3.13;;;1.85;;
37701;SDS011;23548;51.196;6.838;2023-07-31T12:03:09;3.40;;;1.95;;
37701;SDS011;23548;51.196;6.838;2023-07-31T12:05:36;4.93;;;2.13;;
37701;SDS011;23548;51.196;6.838;2023-07-31T12:08:08;2.78;;;1.70;;
37701;SDS011;23548;51.196;6.838;2023-07-31T12:10:38;4.35;;;1.92;;
37701;SDS011;23548;51.196;6.838;2023-07-31T12:13:12;2.30;;;1.98;;
37701;SDS011;23548;51.196;6.838;2023-07-31T12:15:53;4.35;;;1.92;;
37701;SDS011;23548;51.196;6.838;2023-07-31T12:18:21;3.20;;;1.95;;
37701;SDS011;23548;51.196;6.838;2023-07-31T12:20:49;5.63;;;1.88;;
37701;SDS011;23548;51.196;6.838;2023-07-31T12:23:20;3.80;;;2.35;;
37701;SDS011;23548;51.196;6.838;2023-07-31T12:28:35;3.05;;;1.77;;
37701;SDS011;23548;51.196;6.838;2023-07-31T12:31:09;3.65;;;2.30;;
37701;SDS011;23548;51.196;6.838;2023-07-31T12:33:43;3.75;;;2.45;;
37701;SDS011;23548;51.196;6.838;2023-07-31T12:36:11;3.08;;;2.15;;
37701;SDS011;23548;51.196;6.838;2023-07-31T12:38:38;3.42;;;2.08;;
37701;SDS011;23548;51.196;6.838;2023-07-31T12:41:04;5.03;;;2.30;;
37701;SDS011;23548;51.196;6.838;2023-07-31T12:43:32;3.15;;;2.28;;
37701;SDS011;23548;51.196;6.838;2023-07-31T12:46:01;5.68;;;2.33;;
37701;SDS011;23548;51.196;6.838;2023-07-31T12:48:27;3.33;;;2.33;;
37701;SDS011;23548;51.196;6.838;2023-07-31T12:50:53;4.13;;;2.40;;
37701;SDS011;23548;51.196;6.838;2023-07-31T12:53:18;5.35;;;2.78;;
37701;SDS011;23548;51.196;6.838;2023-07-31T12:55:44;5.28;;;2.63;;
37701;SDS011;23548;51.196;6.838;2023-07-31T12:58:10;5.68;;;2.90;;
37701;SDS011;23548;51.196;6.838;2023-07-31T13:00:36;5.35;;;2.90;;
37701;SDS011;23548;51.196;6.838;2023-07-31T13:03:02;4.18;;;2.75;;
37701;SDS011;23548;51.196;6.838;2023-07-31T13:05:28;3.83;;;2.95;;
37701;SDS011;23548;51.196;6.838;2023-07-31T13:07:54;4.68;;;2.92;;
37701;SDS011;23548;51.196;6.838;2023-07-31T13:10:21;4.53;;;2.78;;
37701;SDS011;23548;51.196;6.838;2023-07-31T13:12:48;6.15;;;2.92;;
37701;SDS011;23548;51.196;6.838;2023-07-31T13:15:14;5.93;;;3.20;;
37701;SDS011;23548;51.196;6.838;2023-07-31T13:17:40;5.22;;;3.08;;
37701;SDS011;23548;51.196;6.838;2023-07-31T13:20:06;8.63;;;3.80;;
37701;SDS011;23548;51.196;6.838;2023-07-31T13:22:32;7.13;;;3.47;;
37701;SDS011;23548;51.196;6.838;2023-07-31T13:24:58;7.13;;;3.28;;
37701;SDS011;23548;51.196;6.838;2023-07-31T13:27:24;5.13;;;3.22;;
37701;SDS011;23548;51.196;6.838;2023-07-31T13:29:53;9.65;;;3.72;;
37701;SDS011;23548;51.196;6.838;2023-07-31T13:32:19;4.90;;;3.40;;
37701;SDS011;23548;51.196;6.838;2023-07-31T13:34:45;5.65;;;3.25;;
37701;SDS011;23548;51.196;6.838;2023-07-31T13:37:12;7.70;;;3.42;;
37701;SDS011;23548;51.196;6.838;2023-07-31T13:39:38;5.13;;;3.40;;
37701;SDS011;23548;51.196;6.838;2023-07-31T13:42:04;8.57;;;3.65;;
37701;SDS011;23548;51.196;6.838;2023-07-31T13:44:34;5.85;;;3.28;;
37701;SDS011;23548;51.196;6.838;2023-07-31T13:47:00;5.38;;;3.25;;
37701;SDS011;23548;51.196;6.838;2023-07-31T13:49:26;6.25;;;3.35;;
37701;SDS011;23548;51.196;6.838;2023-07-31T13:51:52;5.70;;;3.55;;
37701;SDS011;23548;51.196;6.838;2023-07-31T13:54:18;8.00;;;3.55;;
37701;SDS011;23548;51.196;6.838;2023-07-31T13:56:44;4.82;;;3.70;;
37701;SDS011;23548;51.196;6.838;2023-07-31T13:59:10;6.63;;;3.60;;
37701;SDS011;23548;51.196;6.838;2023-07-31T14:01:36;7.68;;;3.20;;
37701;SDS011;23548;51.196;6.838;2023-07-31T14:04:02;6.80;;;3.10;;
37701;SDS011;23548;51.196;6.838;2023-07-31T14:06:28;5.38;;;3.42;;
37701;SDS011;23548;51.196;6.838;2023-07-31T14:08:54;5.43;;;3.30;;
37701;SDS011;23548;51.196;6.838;2023-07-31T14:11:21;4.13;;;3.25;;
37701;SDS011;23548;51.196;6.838;2023-07-31T14:13:47;4.60;;;3.53;;
37701;SDS011;23548;51.196;6.838;2023-07-31T14:16:14;6.68;;;3.85;;
37701;SDS011;23548;51.196;6.838;2023-07-31T14:18:40;7.68;;;3.95;;
37701;SDS011;23548;51.196;6.838;2023-07-31T14:21:06;4.68;;;3.05;;
37701;SDS011;23548;51.196;6.838;2023-07-31T14:23:32;5.80;;;3.40;;
37701;SDS011;23548;51.196;6.838;2023-07-31T14:25:57;5.40;;;3.35;;
37701;SDS011;23548;51.196;6.838;2023-07-31T14:28:23;3.85;;;3.03;;
37701;SDS011;23548;51.196;6.838;2023-07-31T14:30:49;3.75;;;3.00;;
37701;SDS011;23548;51.196;6.838;2023-07-31T14:33:15;3.85;;;2.97;;
37701;SDS011;23548;51.196;6.838;2023-07-31T14:35:41;5.22;;;3.10;;
37701;SDS011;23548;51.196;6.838;2023-07-31T14:38:07;5.25;;;3.60;;
37701;SDS011;23548;51.196;6.838;2023-07-31T14:40:32;5.13;;;2.92;;
37701;SDS011;23548;51.196;6.838;2023-07-31T14:42:58;9.15;;;3.67;;
37701;SDS011;23548;51.196;6.838;2023-07-31T14:45:24;5.35;;;3.90;;
37701;SDS011;23548;51.196;6.838;2023-07-31T14:47:50;5.95;;;3.70;;
37701;SDS011;23548;51.196;6.838;2023-07-31T14:50:16;6.10;;;4.22;;
37701;SDS011;23548;51.196;6.838;2023-07-31T14:52:46;8.57;;;5.88;;
37701;SDS011;23548;51.196;6.838;2023-07-31T14:55:12;6.10;;;3.78;;
37701;SDS011;23548;51.196;6.838;2023-07-31T14:57:38;7.75;;;4.25;;
37701;SDS011;23548;51.196;6.838;2023-07-31T15:00:04;8.27;;;4.70;;
37701;SDS011;23548;51.196;6.838;2023-07-31T15:02:33;8.48;;;4.85;;